Time;durP1;ratioP1;P1;durP2;ratioP2;P2;SDS_P1;SDS_P2;PMS_P1;PMS_P2;Temp;Humidity;BMP_temperature;BMP_pressure;BME280_temperature;BME280_humidity;BME280_pressure;Samples;Min_cycle;Max_cycle;Signal;HPM_P1;HPM_P2
2022/10/22 00:01:48;;;;;;;4.60;2.88;;;;;;;;;;4967391;28;20023;-83
2022/10/22 00:04:14;;;;;;;5.40;2.95;;;;;;;;;;4967936;28;20398;-83
2022/10/22 00:06:41;;;;;;;4.93;2.80;;;;;;;;;;4958839;28;20029;-83
2022/10/22 00:09:07;;;;;;;6.28;3.03;;;;;;;;;;4965936;28;20026;-83
2022/10/22 00:11:32;;;;;;;5.50;3.03;;;;;;;;;;4983395;28;20037;-84
2022/10/22 00:13:58;;;;;;;8.27;3.10;;;;;;;;;;4973774;28;20038;-84
2022/10/22 00:16:23;;;;;;;4.93;2.65;;;;;;;;;;4981237;28;20038;-84
2022/10/22 00:18:49;;;;;;;5.00;2.60;;;;;;;;;;4970212;28;20458;-83
2022/10/22 00:21:14;;;;;;;6.47;3.05;;;;;;;;;;4967039;28;20105;-83
2022/10/22 00:23:41;;;;;;;5.15;2.95;;;;;;;;;;4983833;28;20174;-83
2022/10/22 00:26:06;;;;;;;4.88;3.00;;;;;;;;;;4981375;28;20502;-83
2022/10/22 00:28:32;;;;;;;5.10;2.60;;;;;;;;;;4967961;28;20023;-83
2022/10/22 00:30:58;;;;;;;6.70;2.70;;;;;;;;;;4969435;28;20481;-83
2022/10/22 00:33:25;;;;;;;4.93;2.95;;;;;;;;;;4968103;28;20475;-83
2022/10/22 00:35:50;;;;;;;6.63;3.10;;;;;;;;;;4978356;28;20505;-83
2022/10/22 00:38:16;;;;;;;5.32;2.63;;;;;;;;;;4990050;28;20026;-83
2022/10/22 00:40:41;;;;;;;4.03;2.55;;;;;;;;;;4988154;28;20038;-84
2022/10/22 00:43:18;;;;;;;3.97;2.65;;;;;;;;;;4989897;28;20030;-83
2022/10/22 00:45:44;;;;;;;3.78;2.35;;;;;;;;;;4988623;28;20036;-83
2022/10/22 00:48:13;;;;;;;4.43;2.50;;;;;;;;;;4988534;28;20403;-83
2022/10/22 00:50:58;;;;;;;5.95;2.90;;;;;;;;;;4967996;28;20030;-84
2022/10/22 00:53:49;;;;;;;5.68;2.88;;;;;;;;;;4984866;28;20176;-83
2022/10/22 00:56:16;;;;;;;4.82;2.72;;;;;;;;;;4968965;28;20390;-83
2022/10/22 00:58:47;;;;;;;5.05;2.67;;;;;;;;;;4969010;28;20547;-83
2022/10/22 01:01:20;;;;;;;7.20;2.65;;;;;;;;;;4984872;28;20372;-83
2022/10/22 01:03:46;;;;;;;6.03;3.00;;;;;;;;;;4985999;28;20032;-83
2022/10/22 01:06:18;;;;;;;4.95;2.35;;;;;;;;;;4968650;28;20125;-83
2022/10/22 01:09:16;;;;;;;4.65;2.60;;;;;;;;;;4981805;28;20038;-84
2022/10/22 01:12:05;;;;;;;4.05;2.30;;;;;;;;;;4985166;28;20054;-83
2022/10/22 01:14:56;;;;;;;6.78;2.85;;;;;;;;;;4971945;28;20089;-82
2022/10/22 01:17:29;;;;;;;3.40;2.22;;;;;;;;;;4987955;28;20049;-83
2022/10/22 01:20:41;;;;;;;5.65;2.60;;;;;;;;;;4987831;28;20229;-83
2022/10/22 01:23:42;;;;;;;5.00;2.45;;;;;;;;;;4987190;28;20656;-83
2022/10/22 01:26:22;;;;;;;5.82;2.70;;;;;;;;;;4973604;28;20054;-83
2022/10/22 01:28:57;;;;;;;6.05;2.75;;;;;;;;;;4986323;28;20116;-83
2022/10/22 01:31:26;;;;;;;8.23;2.88;;;;;;;;;;4987007;28;20026;-83
2022/10/22 01:33:53;;;;;;;6.00;2.42;;;;;;;;;;4990839;28;20033;-83
2022/10/22 01:36:20;;;;;;;5.47;2.80;;;;;;;;;;4985723;28;20496;-84
2022/10/22 01:38:46;;;;;;;4.15;2.50;;;;;;;;;;4972823;28;20022;-83
2022/10/22 01:41:12;;;;;;;6.22;2.83;;;;;;;;;;4988881;28;20053;-83
2022/10/22 01:43:37;;;;;;;6.32;3.15;;;;;;;;;;4975098;28;20026;-83
2022/10/22 01:46:04;;;;;;;4.78;2.60;;;;;;;;;;4991205;28;20416;-84
2022/10/22 01:48:52;;;;;;;6.00;2.70;;;;;;;;;;4990274;28;20989;-83
2022/10/22 01:51:52;;;;;;;6.15;2.60;;;;;;;;;;4975369;28;20072;-82
2022/10/22 01:54:30;;;;;;;5.97;2.47;;;;;;;;;;4976936;28;20077;-83
2022/10/22 01:57:18;;;;;;;6.40;2.85;;;;;;;;;;4988601;28;20038;-83
2022/10/22 01:59:55;;;;;;;6.82;2.80;;;;;;;;;;4985261;28;20493;-84
2022/10/22 02:02:32;;;;;;;5.25;2.80;;;;;;;;;;4989400;28;20026;-83
2022/10/22 02:05:06;;;;;;;9.20;2.85;;;;;;;;;;4994188;28;20117;-83
2022/10/22 02:08:12;;;;;;;6.78;3.08;;;;;;;;;;4983113;28;20066;-83
2022/10/22 02:10:39;;;;;;;4.55;2.63;;;;;;;;;;4932919;29;20062;-83
2022/10/22 02:13:08;;;;;;;8.57;2.78;;;;;;;;;;4973936;28;20038;-82
2022/10/22 02:15:36;;;;;;;6.75;2.90;;;;;;;;;;4990984;28;20604;-83
2022/10/22 02:18:02;;;;;;;6.28;2.92;;;;;;;;;;4989492;28;20030;-82
2022/10/22 02:20:32;;;;;;;5.18;2.75;;;;;;;;;;4991493;28;20041;-83
2022/10/22 02:22:59;;;;;;;5.03;2.83;;;;;;;;;;4988326;28;20435;-83
2022/10/22 02:25:31;;;;;;;5.97;3.05;;;;;;;;;;4980302;28;20041;-86
2022/10/22 02:28:03;;;;;;;5.80;2.50;;;;;;;;;;4980754;28;20034;-83
2022/10/22 02:30:30;;;;;;;5.10;2.60;;;;;;;;;;4976311;28;20528;-83
2022/10/22 02:33:18;;;;;;;5.25;2.78;;;;;;;;;;4979001;28;20614;-83
2022/10/22 02:35:44;;;;;;;6.65;3.03;;;;;;;;;;4989012;28;20533;-83
2022/10/22 02:38:11;;;;;;;5.82;2.92;;;;;;;;;;4990444;28;20030;-83
2022/10/22 02:40:36;;;;;;;6.93;2.75;;;;;;;;;;4973375;28;20049;-83
2022/10/22 02:43:05;;;;;;;4.60;2.95;;;;;;;;;;4991819;28;20497;-83
2022/10/22 02:45:31;;;;;;;4.88;2.88;;;;;;;;;;4990348;28;20022;-83
2022/10/22 02:47:57;;;;;;;9.77;3.45;;;;;;;;;;4996597;28;20037;-83
2022/10/22 02:50:22;;;;;;;4.35;2.75;;;;;;;;;;4988728;28;20022;-84
2022/10/22 02:52:48;;;;;;;6.25;2.80;;;;;;;;;;4972867;28;20040;-83
2022/10/22 02:55:13;;;;;;;4.97;2.70;;;;;;;;;;4968118;28;20037;-84
2022/10/22 02:57:39;;;;;;;6.43;3.55;;;;;;;;;;4990604;28;20101;-83
2022/10/22 03:00:06;;;;;;;7.45;3.00;;;;;;;;;;4991522;28;20026;-83
2022/10/22 03:02:32;;;;;;;4.65;2.70;;;;;;;;;;4985286;28;20092;-83
2022/10/22 03:04:57;;;;;;;4.50;2.78;;;;;;;;;;4990929;28;20062;-83
2022/10/22 03:07:23;;;;;;;7.45;2.97;;;;;;;;;;4992932;28;20086;-84
2022/10/22 03:09:48;;;;;;;8.25;2.67;;;;;;;;;;4973530;28;20031;-83
2022/10/22 03:12:13;;;;;;;7.05;3.08;;;;;;;;;;4996149;28;20022;-83
2022/10/22 03:14:39;;;;;;;9.10;3.35;;;;;;;;;;4969259;28;20033;-83
2022/10/22 03:17:04;;;;;;;7.20;3.30;;;;;;;;;;4974595;28;20026;-83
2022/10/22 03:19:30;;;;;;;7.25;2.80;;;;;;;;;;4997057;28;20030;-83
2022/10/22 03:21:57;;;;;;;7.43;2.83;;;;;;;;;;4983067;28;20022;-83
2022/10/22 03:24:34;;;;;;;6.47;3.00;;;;;;;;;;4986205;28;20027;-83
2022/10/22 03:26:59;;;;;;;9.48;3.25;;;;;;;;;;4971209;28;20505;-84
2022/10/22 03:29:26;;;;;;;5.85;3.05;;;;;;;;;;4995751;28;20026;-83
2022/10/22 03:31:52;;;;;;;6.15;3.22;;;;;;;;;;4988159;28;20046;-83
2022/10/22 03:34:17;;;;;;;6.47;2.53;;;;;;;;;;4989037;28;20030;-83
2022/10/22 03:36:43;;;;;;;5.45;2.60;;;;;;;;;;4989706;28;20062;-83
2022/10/22 03:39:11;;;;;;;6.43;2.90;;;;;;;;;;4988164;28;20378;-84
2022/10/22 03:41:37;;;;;;;4.85;2.80;;;;;;;;;;4989162;28;20466;-84
2022/10/22 03:44:03;;;;;;;7.75;2.80;;;;;;;;;;4972538;28;20033;-83
2022/10/22 03:46:29;;;;;;;6.43;2.72;;;;;;;;;;4989701;28;20474;-82
2022/10/22 03:48:54;;;;;;;5.72;3.10;;;;;;;;;;4988718;28;20038;-82
2022/10/22 03:51:19;;;;;;;5.50;3.08;;;;;;;;;;4988346;28;20108;-83
2022/10/22 03:53:45;;;;;;;7.25;2.85;;;;;;;;;;4989907;28;20078;-82
2022/10/22 03:56:11;;;;;;;7.07;3.05;;;;;;;;;;4988203;28;20515;-83
2022/10/22 03:58:38;;;;;;;6.03;2.95;;;;;;;;;;4987266;28;20114;-83
2022/10/22 04:01:06;;;;;;;5.90;2.75;;;;;;;;;;4989743;28;20375;-82
2022/10/22 04:03:32;;;;;;;5.50;2.88;;;;;;;;;;4984056;28;20037;-83
2022/10/22 04:06:09;;;;;;;7.43;2.90;;;;;;;;;;4971298;28;20022;-83
2022/10/22 04:08:37;;;;;;;7.07;2.85;;;;;;;;;;4987102;28;20033;-83
2022/10/22 04:11:02;;;;;;;6.20;2.78;;;;;;;;;;4971765;28;20032;-82
2022/10/22 04:13:28;;;;;;;8.88;2.88;;;;;;;;;;4989098;28;20113;-84
2022/10/22 04:15:53;;;;;;;5.13;2.58;;;;;;;;;;4986545;28;20046;-83
2022/10/22 04:18:19;;;;;;;6.10;2.85;;;;;;;;;;4987859;28;20389;-83
2022/10/22 04:20:45;;;;;;;7.15;2.85;;;;;;;;;;4985616;28;20538;-84
2022/10/22 04:23:11;;;;;;;5.70;2.80;;;;;;;;;;4970792;28;20033;-83
2022/10/22 04:25:37;;;;;;;6.53;2.92;;;;;;;;;;4988059;28;20462;-84
2022/10/22 04:28:06;;;;;;;8.02;2.97;;;;;;;;;;4990641;28;20089;-82
2022/10/22 04:30:32;;;;;;;7.40;3.25;;;;;;;;;;4985301;28;20077;-84
2022/10/22 04:32:57;;;;;;;6.28;2.70;;;;;;;;;;4973998;28;20026;-83
2022/10/22 04:35:22;;;;;;;7.30;3.08;;;;;;;;;;4985139;28;20097;-83
2022/10/22 04:37:48;;;;;;;7.32;3.05;;;;;;;;;;4970691;28;20181;-83
2022/10/22 04:40:13;;;;;;;7.53;2.67;;;;;;;;;;4989431;28;20066;-83
2022/10/22 04:42:39;;;;;;;4.95;2.80;;;;;;;;;;4990427;28;20022;-83
2022/10/22 04:45:04;;;;;;;5.18;2.70;;;;;;;;;;4988048;28;20326;-82
2022/10/22 04:47:30;;;;;;;6.30;2.65;;;;;;;;;;4984647;28;20037;-82
2022/10/22 04:49:55;;;;;;;7.05;2.75;;;;;;;;;;4991284;28;20080;-83
2022/10/22 04:52:20;;;;;;;5.80;2.60;;;;;;;;;;4988938;28;20026;-83
2022/10/22 04:54:46;;;;;;;7.78;2.40;;;;;;;;;;4974912;28;20022;-83
2022/10/22 04:57:11;;;;;;;7.82;3.08;;;;;;;;;;4987307;28;20041;-83
2022/10/22 04:59:36;;;;;;;5.85;2.63;;;;;;;;;;4971613;28;20113;-83
2022/10/22 05:02:02;;;;;;;6.28;2.53;;;;;;;;;;4974609;28;20035;-83
2022/10/22 05:04:27;;;;;;;9.50;2.72;;;;;;;;;;4969616;28;20026;-83
2022/10/22 05:06:53;;;;;;;6.88;2.40;;;;;;;;;;4970490;28;20038;-83
2022/10/22 05:09:19;;;;;;;7.28;2.70;;;;;;;;;;4987080;28;20066;-85
2022/10/22 05:11:48;;;;;;;5.97;2.40;;;;;;;;;;4985552;28;20125;-83
2022/10/22 05:14:16;;;;;;;7.65;2.58;;;;;;;;;;4989175;28;21006;-83
2022/10/22 05:16:41;;;;;;;7.05;2.60;;;;;;;;;;4989927;28;20402;-83
2022/10/22 05:19:08;;;;;;;4.43;2.15;;;;;;;;;;4989483;28;20023;-83
2022/10/22 05:21:33;;;;;;;6.22;2.67;;;;;;;;;;4983207;28;20042;-83
2022/10/22 05:23:59;;;;;;;4.97;2.40;;;;;;;;;;4974822;28;20028;-83
2022/10/22 05:26:25;;;;;;;5.18;2.45;;;;;;;;;;4988361;28;21169;-82
2022/10/22 05:28:51;;;;;;;6.75;2.40;;;;;;;;;;4986447;28;20035;-84
2022/10/22 05:31:17;;;;;;;6.90;2.60;;;;;;;;;;4985702;28;20034;-84
2022/10/22 05:33:43;;;;;;;6.72;2.55;;;;;;;;;;4986954;28;20308;-83
2022/10/22 05:36:15;;;;;;;6.93;2.67;;;;;;;;;;4986348;28;20541;-83
2022/10/22 05:38:41;;;;;;;8.23;2.67;;;;;;;;;;4985336;28;20088;-83
2022/10/22 05:41:12;;;;;;;7.32;2.97;;;;;;;;;;4988613;28;20030;-83
2022/10/22 05:43:38;;;;;;;5.40;2.25;;;;;;;;;;4987746;28;20086;-83
2022/10/22 05:46:06;;;;;;;6.85;2.95;;;;;;;;;;4983907;28;20034;-83
2022/10/22 05:48:31;;;;;;;5.18;2.38;;;;;;;;;;4986630;28;20478;-83
2022/10/22 05:51:03;;;;;;;6.13;2.38;;;;;;;;;;4988852;28;20038;-82
2022/10/22 05:53:29;;;;;;;7.63;2.55;;;;;;;;;;4986832;28;20498;-83
2022/10/22 05:55:54;;;;;;;7.85;2.63;;;;;;;;;;4986004;28;20030;-82
2022/10/22 05:58:20;;;;;;;6.70;2.60;;;;;;;;;;4989398;28;20029;-83
2022/10/22 06:00:45;;;;;;;8.45;2.50;;;;;;;;;;4990973;28;20089;-83
2022/10/22 06:03:10;;;;;;;7.55;2.50;;;;;;;;;;4990189;28;20089;-82
2022/10/22 06:05:36;;;;;;;6.70;2.60;;;;;;;;;;4990659;28;20061;-83
2022/10/22 06:08:03;;;;;;;6.78;2.50;;;;;;;;;;4987869;28;20449;-82
2022/10/22 06:10:28;;;;;;;8.13;2.60;;;;;;;;;;4991179;28;20089;-82
2022/10/22 06:12:54;;;;;;;6.57;2.20;;;;;;;;;;4993780;28;20034;-84
2022/10/22 06:15:19;;;;;;;4.30;2.20;;;;;;;;;;4970872;28;20117;-83
2022/10/22 06:17:46;;;;;;;9.55;2.33;;;;;;;;;;4989499;28;20411;-83
2022/10/22 06:20:13;;;;;;;5.75;2.30;;;;;;;;;;4978116;28;20797;-82
2022/10/22 06:22:38;;;;;;;8.43;2.60;;;;;;;;;;4972273;28;20030;-83
2022/10/22 06:25:05;;;;;;;4.85;2.05;;;;;;;;;;4984488;28;20037;-83
2022/10/22 06:27:30;;;;;;;6.20;2.20;;;;;;;;;;4983865;28;20018;-83
2022/10/22 06:29:56;;;;;;;7.00;2.22;;;;;;;;;;4983278;28;20033;-82
2022/10/22 06:32:21;;;;;;;6.15;2.40;;;;;;;;;;4981276;28;20023;-83
2022/10/22 06:34:47;;;;;;;6.65;2.28;;;;;;;;;;4974371;28;20389;-83
2022/10/22 06:37:14;;;;;;;7.28;2.50;;;;;;;;;;4969115;28;20043;-83
2022/10/22 06:39:39;;;;;;;7.57;2.13;;;;;;;;;;4984284;28;20033;-84
2022/10/22 06:42:05;;;;;;;6.22;2.20;;;;;;;;;;4974192;28;20113;-83
2022/10/22 06:44:30;;;;;;;7.72;2.25;;;;;;;;;;4968045;28;20376;-83
2022/10/22 06:46:56;;;;;;;6.47;1.88;;;;;;;;;;4983797;28;20034;-82
2022/10/22 06:49:21;;;;;;;7.28;2.17;;;;;;;;;;4990877;28;20122;-83
2022/10/22 06:51:51;;;;;;;15.90;4.13;;;;;;;;;;4987478;28;20054;-82
2022/10/22 06:54:17;;;;;;;9.30;2.97;;;;;;;;;;4990422;28;20026;-82
2022/10/22 06:56:42;;;;;;;5.60;1.90;;;;;;;;;;4975029;28;20095;-82
2022/10/22 06:59:08;;;;;;;5.55;1.92;;;;;;;;;;4990105;28;20046;-82
2022/10/22 07:01:34;;;;;;;8.40;2.45;;;;;;;;;;4989881;28;20034;-82
2022/10/22 07:04:00;;;;;;;4.65;1.88;;;;;;;;;;4971007;28;20030;-82
2022/10/22 07:06:27;;;;;;;5.18;1.70;;;;;;;;;;4977697;28;20157;-83
2022/10/22 07:08:54;;;;;;;5.55;1.70;;;;;;;;;;4982899;28;20041;-83
2022/10/22 07:11:21;;;;;;;6.82;1.80;;;;;;;;;;4977593;28;20026;-83
2022/10/22 07:13:47;;;;;;;5.97;1.90;;;;;;;;;;4985126;28;20034;-83
2022/10/22 07:16:13;;;;;;;5.18;1.80;;;;;;;;;;4986247;28;20049;-82
2022/10/22 07:18:40;;;;;;;7.07;2.00;;;;;;;;;;4989820;28;20030;-82
2022/10/22 07:21:06;;;;;;;5.28;2.03;;;;;;;;;;4987027;28;20040;-82
2022/10/22 07:23:32;;;;;;;4.78;1.52;;;;;;;;;;4985673;28;20026;-83
2022/10/22 07:25:58;;;;;;;5.38;1.80;;;;;;;;;;4991366;28;20030;-83
2022/10/22 07:28:23;;;;;;;4.90;1.50;;;;;;;;;;4987681;28;20048;-82
2022/10/22 07:30:50;;;;;;;6.45;1.60;;;;;;;;;;4989384;28;20068;-82
2022/10/22 07:33:15;;;;;;;6.45;1.40;;;;;;;;;;4988620;28;20026;-82
2022/10/22 07:35:41;;;;;;;7.32;2.08;;;;;;;;;;4992132;28;20057;-82
2022/10/22 07:38:07;;;;;;;8.25;1.90;;;;;;;;;;4993746;28;20081;-82
2022/10/22 07:40:34;;;;;;;6.22;1.92;;;;;;;;;;4991370;28;20410;-82
2022/10/22 07:42:59;;;;;;;5.15;1.70;;;;;;;;;;4976993;28;20371;-82
2022/10/22 07:45:24;;;;;;;5.97;1.90;;;;;;;;;;4991506;28;20083;-81
2022/10/22 07:47:50;;;;;;;4.55;1.60;;;;;;;;;;4993162;28;20022;-82
2022/10/22 07:50:15;;;;;;;6.82;1.70;;;;;;;;;;4975853;28;20031;-83
2022/10/22 07:52:41;;;;;;;4.30;1.60;;;;;;;;;;4992195;28;20023;-83
2022/10/22 07:55:07;;;;;;;6.63;1.80;;;;;;;;;;4990609;28;20033;-81
2022/10/22 07:57:32;;;;;;;6.13;1.50;;;;;;;;;;4986611;28;20482;-82
2022/10/22 08:00:01;;;;;;;6.15;2.08;;;;;;;;;;4975947;28;20025;-82
2022/10/22 08:02:26;;;;;;;5.82;1.65;;;;;;;;;;4969061;28;20037;-82
2022/10/22 08:04:51;;;;;;;6.13;1.90;;;;;;;;;;4974915;28;20034;-83
2022/10/22 08:07:18;;;;;;;4.10;1.83;;;;;;;;;;4975611;28;20034;-82
2022/10/22 08:09:43;;;;;;;4.30;1.60;;;;;;;;;;4984548;28;20068;-82
2022/10/22 08:12:09;;;;;;;5.72;1.50;;;;;;;;;;4991032;28;20109;-82
2022/10/22 08:14:34;;;;;;;6.13;1.80;;;;;;;;;;4984223;28;20030;-82
2022/10/22 08:17:00;;;;;;;5.80;1.52;;;;;;;;;;4970921;28;20031;-82
2022/10/22 08:19:31;;;;;;;6.40;1.70;;;;;;;;;;4991006;28;20029;-82
2022/10/22 08:21:58;;;;;;;4.85;1.67;;;;;;;;;;4980802;28;20038;-82
2022/10/22 08:24:25;;;;;;;9.45;1.60;;;;;;;;;;4987331;28;20026;-82
2022/10/22 08:26:53;;;;;;;4.85;1.52;;;;;;;;;;4989715;28;20065;-82
2022/10/22 08:29:20;;;;;;;10.00;2.00;;;;;;;;;;4971171;28;20057;-83
2022/10/22 08:31:46;;;;;;;5.80;1.80;;;;;;;;;;4988653;28;20018;-82
2022/10/22 08:34:11;;;;;;;6.65;1.70;;;;;;;;;;4988389;28;20364;-84
2022/10/22 08:36:37;;;;;;;5.85;1.77;;;;;;;;;;4973047;28;20082;-81
2022/10/22 08:39:02;;;;;;;6.82;1.92;;;;;;;;;;4966642;28;20093;-83
2022/10/22 08:41:28;;;;;;;5.72;1.77;;;;;;;;;;4988998;28;20022;-83
2022/10/22 08:44:29;;;;;;;5.55;1.70;;;;;;;;;;4987715;28;20502;-83
2022/10/22 08:47:27;;;;;;;8.10;2.00;;;;;;;;;;4987530;28;20109;-82
2022/10/22 08:49:54;;;;;;;5.15;1.67;;;;;;;;;;4960329;28;20042;-82
2022/10/22 08:52:20;;;;;;;7.57;1.75;;;;;;;;;;4988157;28;20036;-82
2022/10/22 08:54:53;;;;;;;4.47;1.52;;;;;;;;;;4982696;28;20053;-82
2022/10/22 08:57:38;;;;;;;;;;;;;;;;;;4993469;28;20032;-82
2022/10/22 09:00:14;;;;;;;6.05;1.70;;;;;;;;;;4972964;28;19914;-82
2022/10/22 09:02:51;;;;;;;7.85;1.73;;;;;;;;;;4986257;28;20118;-83
2022/10/22 09:05:54;;;;;;;5.00;1.40;;;;;;;;;;4992513;28;20614;-83
2022/10/22 09:08:22;;;;;;;4.78;1.60;;;;;;;;;;4989548;28;20039;-82
2022/10/22 09:11:04;;;;;;;5.38;1.50;;;;;;;;;;4989595;28;20102;-82
2022/10/22 09:13:30;;;;;;;4.32;1.30;;;;;;;;;;4984537;28;20126;-82
2022/10/22 09:16:01;;;;;;;10.85;1.52;;;;;;;;;;4985257;28;20066;-82
2022/10/22 09:18:40;;;;;;;6.72;1.45;;;;;;;;;;4985264;28;20030;-83
2022/10/22 09:21:18;;;;;;;5.63;1.40;;;;;;;;;;4982089;28;20363;-82
2022/10/22 09:24:04;;;;;;;6.38;1.75;;;;;;;;;;4989913;28;20567;-84
2022/10/22 09:26:35;;;;;;;6.65;1.50;;;;;;;;;;4988854;28;20030;-84
2022/10/22 09:29:01;;;;;;;5.88;1.60;;;;;;;;;;4979175;28;20113;-86
2022/10/22 09:31:29;;;;;;;5.93;1.70;;;;;;;;;;4990522;28;20157;-85
2022/10/22 09:33:58;;;;;;;6.85;1.67;;;;;;;;;;4975647;28;20630;-84
2022/10/22 09:50:58;;;;;;;7.47;1.70;;;;;;;;;;4909748;29;20044;-84
2022/10/22 10:09:04;;;;;;;;;;;;;;;;;;;;;
2022/10/22 10:29:02;;;;;;;5.05;1.92;;;;;;;;;;4910609;29;20040;-86
2022/10/22 10:31:44;;;;;;;5.93;2.35;;;;;;;;;;4892881;29;20039;-83
2022/10/22 10:34:41;;;;;;;6.68;2.35;;;;;;;;;;4894528;29;20036;-84
2022/10/22 10:37:16;;;;;;;7.70;2.00;;;;;;;;;;4932221;28;20503;-83
2022/10/22 10:40:01;;;;;;;6.70;1.90;;;;;;;;;;4963269;28;20026;-83
2022/10/22 10:42:37;;;;;;;6.63;2.17;;;;;;;;;;4983188;28;20050;-84
2022/10/22 10:45:24;;;;;;;9.13;2.20;;;;;;;;;;4969559;28;20046;-85
2022/10/22 10:48:25;;;;;;;6.93;1.98;;;;;;;;;;4985092;28;20480;-83
2022/10/22 10:51:09;;;;;;;7.53;2.65;;;;;;;;;;4984990;28;20092;-83
2022/10/22 10:54:06;;;;;;;6.95;1.90;;;;;;;;;;4977447;28;20394;-84
2022/10/22 10:56:40;;;;;;;8.35;2.40;;;;;;;;;;4977486;28;20037;-84
2022/10/22 10:59:17;;;;;;;4.75;1.77;;;;;;;;;;4989262;28;20018;-83
2022/10/22 11:02:09;;;;;;;4.22;1.90;;;;;;;;;;4977652;28;20030;-83
2022/10/22 11:05:01;;;;;;;10.48;2.65;;;;;;;;;;4990373;28;20498;-83
2022/10/22 11:07:46;;;;;;;5.03;1.80;;;;;;;;;;4999356;28;20026;-83
2022/10/22 11:10:50;;;;;;;6.72;2.38;;;;;;;;;;4989944;28;20113;-83
2022/10/22 11:13:26;;;;;;;;;;;;;;;;;;4900531;29;20032;-84
2022/10/22 11:15:58;;;;;;;4.40;1.70;;;;;;;;;;4894529;29;20046;-83
2022/10/22 11:18:50;;;;;;;5.88;2.13;;;;;;;;;;4941241;28;20026;-84
2022/10/22 11:21:25;;;;;;;7.35;2.13;;;;;;;;;;4978980;28;20500;-83
2022/10/22 11:23:59;;;;;;;6.32;2.00;;;;;;;;;;4985105;28;20386;-84
2022/10/22 11:26:36;;;;;;;6.80;2.25;;;;;;;;;;4993215;28;20034;-83
2022/10/22 11:29:06;;;;;;;8.13;2.10;;;;;;;;;;4993407;28;20482;-83
2022/10/22 11:31:31;;;;;;;5.13;2.35;;;;;;;;;;4974931;28;20497;-84
2022/10/22 11:34:15;;;;;;;6.15;2.00;;;;;;;;;;4993085;28;20027;-84
2022/10/22 11:36:42;;;;;;;6.55;2.40;;;;;;;;;;5003598;28;20154;-84
2022/10/22 11:39:28;;;;;;;8.93;2.40;;;;;;;;;;4975824;28;20027;-83
2022/10/22 11:41:54;;;;;;;9.13;2.45;;;;;;;;;;4994146;28;20037;-84
2022/10/22 11:44:24;;;;;;;8.90;2.35;;;;;;;;;;4980139;28;20391;-84
2022/10/22 11:46:56;;;;;;;8.13;1.98;;;;;;;;;;4996963;28;20034;-83
2022/10/22 11:49:40;;;;;;;7.60;2.50;;;;;;;;;;4993481;28;20168;-83
2022/10/22 11:52:48;;;;;;;8.77;2.63;;;;;;;;;;4976020;28;20041;-84
2022/10/22 11:55:44;;;;;;;11.80;2.70;;;;;;;;;;4913911;29;20514;-83
2022/10/22 11:58:31;;;;;;;7.93;2.38;;;;;;;;;;4988024;28;20117;-83
2022/10/22 12:01:17;;;;;;;6.72;2.22;;;;;;;;;;4993218;28;20030;-84
2022/10/22 12:03:45;;;;;;;9.32;2.30;;;;;;;;;;4998837;28;20569;-83
2022/10/22 12:06:18;;;;;;;6.30;2.50;;;;;;;;;;4977074;28;20065;-83
2022/10/22 12:08:53;;;;;;;8.88;3.00;;;;;;;;;;4975614;28;20121;-83
2022/10/22 12:11:26;;;;;;;8.45;2.78;;;;;;;;;;4973305;28;20030;-84
2022/10/22 12:14:13;;;;;;;9.40;2.70;;;;;;;;;;4988273;28;20037;-83
2022/10/22 12:16:55;;;;;;;8.15;2.72;;;;;;;;;;4984155;28;20395;-83
2022/10/22 12:19:40;;;;;;;6.78;2.70;;;;;;;;;;4995538;28;20053;-84
2022/10/22 12:22:05;;;;;;;8.77;2.58;;;;;;;;;;4972067;28;20022;-83
2022/10/22 12:24:35;;;;;;;6.43;2.78;;;;;;;;;;4983134;28;20033;-84
2022/10/22 12:27:00;;;;;;;11.85;3.05;;;;;;;;;;4980902;28;20027;-84
2022/10/22 12:29:27;;;;;;;8.57;2.53;;;;;;;;;;4985281;28;20117;-83
2022/10/22 12:31:53;;;;;;;9.13;2.50;;;;;;;;;;4981205;28;20483;-83
2022/10/22 12:34:24;;;;;;;8.80;3.10;;;;;;;;;;4993354;28;20026;-84
2022/10/22 12:36:52;;;;;;;6.30;2.35;;;;;;;;;;4984388;28;20411;-83
2022/10/22 12:39:25;;;;;;;7.93;2.50;;;;;;;;;;4989524;28;20014;-83
2022/10/22 12:41:52;;;;;;;9.00;3.05;;;;;;;;;;4992117;28;20423;-83
2022/10/22 12:44:18;;;;;;;7.53;2.33;;;;;;;;;;4975338;28;20030;-83
2022/10/22 12:46:46;;;;;;;9.13;3.05;;;;;;;;;;4992380;28;20027;-83
2022/10/22 12:49:24;;;;;;;12.18;3.15;;;;;;;;;;4991815;28;20018;-83
2022/10/22 12:51:49;;;;;;;9.98;2.80;;;;;;;;;;4992770;28;20482;-83
2022/10/22 12:54:27;;;;;;;8.55;2.70;;;;;;;;;;4991556;28;20041;-83
2022/10/22 12:56:55;;;;;;;9.20;2.63;;;;;;;;;;4985099;28;20022;-84
2022/10/22 12:59:25;;;;;;;5.60;2.45;;;;;;;;;;4984545;28;20027;-83
2022/10/22 13:01:51;;;;;;;11.63;2.72;;;;;;;;;;4976289;28;20022;-83
2022/10/22 13:04:32;;;;;;;10.30;2.88;;;;;;;;;;4985014;28;20556;-84
2022/10/22 13:07:11;;;;;;;8.13;2.92;;;;;;;;;;4973966;28;20032;-83
2022/10/22 13:09:57;;;;;;;6.22;2.30;;;;;;;;;;4975381;28;20496;-83
2022/10/22 13:12:33;;;;;;;11.07;3.38;;;;;;;;;;4977538;28;20363;-84
2022/10/22 13:15:22;;;;;;;8.63;2.92;;;;;;;;;;4975084;28;20023;-83
2022/10/22 13:17:48;;;;;;;8.30;2.90;;;;;;;;;;4972389;28;20101;-83
2022/10/22 13:20:21;;;;;;;9.75;3.15;;;;;;;;;;4992879;28;20500;-83
2022/10/22 13:23:04;;;;;;;8.15;2.92;;;;;;;;;;4973536;28;20022;-84
2022/10/22 13:25:36;;;;;;;9.75;2.97;;;;;;;;;;4973919;28;20026;-83
2022/10/22 13:28:19;;;;;;;9.15;2.70;;;;;;;;;;4972644;28;20062;-84
2022/10/22 13:30:56;;;;;;;;;;;;;;;;;;4968620;28;20092;-83
2022/10/22 13:33:26;;;;;;;10.60;3.05;;;;;;;;;;4973915;28;19928;-83
2022/10/22 13:35:52;;;;;;;6.55;2.60;;;;;;;;;;4992772;28;20050;-83
2022/10/22 13:38:20;;;;;;;6.60;2.67;;;;;;;;;;4991422;28;20448;-84
2022/10/22 13:40:46;;;;;;;8.52;2.55;;;;;;;;;;4991288;28;20117;-83
2022/10/22 13:43:12;;;;;;;11.13;2.70;;;;;;;;;;4991458;28;20018;-83
2022/10/22 13:45:38;;;;;;;6.70;2.42;;;;;;;;;;4991707;28;20030;-84
2022/10/22 13:48:04;;;;;;;9.77;2.75;;;;;;;;;;4991060;28;20030;-84
2022/10/22 13:50:29;;;;;;;6.82;2.28;;;;;;;;;;4990253;28;20042;-84
2022/10/22 13:52:57;;;;;;;6.05;2.20;;;;;;;;;;4991377;28;20028;-84
2022/10/22 13:55:25;;;;;;;7.10;2.15;;;;;;;;;;4976153;28;20033;-84
2022/10/22 13:57:53;;;;;;;6.65;2.30;;;;;;;;;;4990992;28;20062;-83
2022/10/22 14:00:21;;;;;;;6.20;2.47;;;;;;;;;;4991141;28;20025;-84
2022/10/22 14:02:49;;;;;;;7.03;1.90;;;;;;;;;;4974128;28;20026;-84
2022/10/22 14:05:16;;;;;;;7.40;2.42;;;;;;;;;;4973939;28;20125;-83
2022/10/22 14:07:41;;;;;;;10.07;3.10;;;;;;;;;;4967443;28;20364;-84
2022/10/22 14:10:23;;;;;;;5.97;2.70;;;;;;;;;;4967299;28;20027;-84
2022/10/22 14:12:49;;;;;;;5.93;2.25;;;;;;;;;;4982739;28;20027;-84
2022/10/22 14:15:17;;;;;;;5.95;2.38;;;;;;;;;;4975394;28;20542;-85
2022/10/22 14:17:45;;;;;;;15.57;2.40;;;;;;;;;;4985162;28;20093;-83
2022/10/22 14:20:20;;;;;;;6.22;2.70;;;;;;;;;;4984574;28;20023;-85
2022/10/22 14:22:47;;;;;;;9.48;2.38;;;;;;;;;;4983328;28;20590;-85
2022/10/22 14:25:23;;;;;;;8.07;2.65;;;;;;;;;;4980731;28;20125;-84
2022/10/22 14:27:49;;;;;;;8.55;3.30;;;;;;;;;;4969320;28;20035;-84
2022/10/22 14:30:21;;;;;;;9.63;3.35;;;;;;;;;;4974057;28;20030;-84
2022/10/22 14:32:47;;;;;;;9.00;3.00;;;;;;;;;;4967946;28;20093;-84
2022/10/22 14:35:19;;;;;;;7.63;2.78;;;;;;;;;;4983636;28;20905;-86
2022/10/22 14:37:45;;;;;;;7.22;2.78;;;;;;;;;;4981303;28;20041;-85
2022/10/22 14:40:15;;;;;;;9.38;3.00;;;;;;;;;;4966992;28;20027;-85
2022/10/22 14:42:43;;;;;;;10.25;3.25;;;;;;;;;;4986829;28;20038;-85
2022/10/22 14:45:15;;;;;;;9.35;2.97;;;;;;;;;;4963258;28;20619;-85
2022/10/22 14:47:41;;;;;;;7.68;2.75;;;;;;;;;;4990602;28;20040;-86
2022/10/22 14:50:07;;;;;;;5.88;3.15;;;;;;;;;;4976559;28;20026;-85
2022/10/22 14:52:33;;;;;;;8.32;3.00;;;;;;;;;;4983311;28;20057;-85
2022/10/22 14:54:58;;;;;;;11.10;3.53;;;;;;;;;;4986877;28;20503;-85
2022/10/22 15:01:44;;;;;;;;;;;;;;;;;;;;;
2022/10/22 17:20:43;;;;;;;7.47;4.10;;;;;;;;;;514036;26;20352;-84
2022/10/22 17:23:08;;;;;;;9.93;4.05;;;;;;;;;;4918031;29;20044;-83
2022/10/22 17:26:36;;;;;;;7.78;4.18;;;;;;;;;;4918591;29;20099;-85
2022/10/22 17:29:02;;;;;;;7.22;3.65;;;;;;;;;;4924581;29;20472;-84
2022/10/22 17:31:40;;;;;;;7.55;3.80;;;;;;;;;;4917829;29;20032;-85
2022/10/22 17:34:13;;;;;;;11.88;3.70;;;;;;;;;;4939359;28;20040;-85
2022/10/22 17:37:00;;;;;;;7.10;3.47;;;;;;;;;;4922991;29;20391;-85
2022/10/22 17:40:25;;;;;;;7.03;3.90;;;;;;;;;;4921065;29;20039;-85
2022/10/22 17:42:57;;;;;;;7.63;3.72;;;;;;;;;;4929395;29;20473;-84
2022/10/22 17:45:24;;;;;;;6.57;4.20;;;;;;;;;;4925339;29;20499;-84
2022/10/22 17:47:53;;;;;;;8.80;4.20;;;;;;;;;;4925518;29;20042;-84
2022/10/22 17:50:18;;;;;;;9.27;4.80;;;;;;;;;;4924386;29;20095;-83
2022/10/22 17:52:44;;;;;;;11.48;5.35;;;;;;;;;;4922526;29;20031;-85
2022/10/22 17:55:11;;;;;;;9.98;4.72;;;;;;;;;;4923606;29;20038;-84
2022/10/22 17:57:37;;;;;;;8.57;5.40;;;;;;;;;;4925544;29;20035;-85
2022/10/22 18:00:03;;;;;;;7.47;4.25;;;;;;;;;;4928749;29;20030;-83
2022/10/22 18:02:29;;;;;;;8.73;4.85;;;;;;;;;;4941231;28;20093;-84
2022/10/22 18:04:58;;;;;;;8.40;5.60;;;;;;;;;;4900193;29;20147;-84
2022/10/22 18:07:24;;;;;;;8.07;5.15;;;;;;;;;;4905803;29;20150;-83
2022/10/22 18:09:49;;;;;;;10.13;5.32;;;;;;;;;;4910764;29;20039;-84
2022/10/22 18:12:16;;;;;;;9.63;4.97;;;;;;;;;;4904701;29;20040;-85
2022/10/22 18:14:42;;;;;;;7.07;5.00;;;;;;;;;;4921500;29;20032;-84
2022/10/22 18:17:08;;;;;;;8.85;4.78;;;;;;;;;;4904489;29;20171;-85